»·PEaware :: APW4474 TNCM-KSAN

APW4474 :: TNCM-KSAN

FLIGHT INFORMATION

Flight Status: Arrived
Operator:
Arrow Cargo
More flights by this operator :: More flights under this callsign
Pilot: Alan J. (5709)
Aircraft: LOCKHEED L-1011 TRI-STAR
(L101)
More flights by this aircraft type
Origin: TNCM Princess Juliana Intl
Netherlands Antilles
Destination: KSAN San Diego Intl-Lindbergh
United States
More flights between these airports :: More routes between these airports
Route: +BOPAT2 JUICE DDP ZQA NICKO FOWEE MTH REMIS LEV ELP J50 GBN J2 IPL BARET5
File this flight plan on PilotEdge
Remarks:
Altitude:
(Current/Filed)
34,000ft
Speed:
(Current/Filed)
490kts
Departed: 21-Jun-16 05:12 PM
Arrived: 21-Jun-16 06:33 PM
Distance/Time
Traveled:
3028nm/1:20
Distance/Time
To Go:
Arrived

Flight Plot

Page will automatically refresh every two minutes.

Flight plan parsing failed; only flown route is shown


Map Options




Map Legend


Flown Route
Filed Route
Departure Airport
Arrival Airport
Navaid (VOR, NDB)
Fix

Horizontal Profiles

Position Reports

Time Latitude Longitude Heading Altitude Ground
Speed
21-Jun-16 16:50 18.041469 -63.113675 286 29ft 0kts
21-Jun-16 16:51 18.041469 -63.113675 286 29ft 0kts
21-Jun-16 16:52 18.041469 -63.113675 286 29ft 0kts
21-Jun-16 16:53 18.041469 -63.113675 286 29ft 0kts
21-Jun-16 16:54 18.041469 -63.113675 286 29ft 0kts
21-Jun-16 16:55 18.041469 -63.113675 286 29ft 0kts
21-Jun-16 16:56 18.041469 -63.113675 286 29ft 0kts
21-Jun-16 16:57 18.041469 -63.113675 286 29ft 0kts
21-Jun-16 16:59 18.041469 -63.113675 286 29ft 0kts
21-Jun-16 17:00 18.041415 -63.113471 280 29ft 2kts
21-Jun-16 17:01 18.041510 -63.112909 201 29ft 2kts
21-Jun-16 17:02 18.041573 -63.112884 188 29ft 0kts
21-Jun-16 17:03 18.041573 -63.112884 188 29ft 0kts
21-Jun-16 17:04 18.041573 -63.112884 188 29ft 0kts
21-Jun-16 17:05 18.040827 -63.112883 172 29ft 12kts
21-Jun-16 17:06 18.040563 -63.117359 260 29ft 26kts
21-Jun-16 17:07 18.040027 -63.119399 237 29ft 0kts
21-Jun-16 17:08 18.039441 -63.119149 84 29ft 0kts
21-Jun-16 17:09 18.041904 -63.101174 82 42ft 146kts
21-Jun-16 17:10 18.050572 -63.060842 75 1291ft 146kts
21-Jun-16 17:11 18.046503 -63.012922 135 2268ft 232kts
21-Jun-16 17:12 17.978447 -63.014815 204 5517ft 274kts
21-Jun-16 17:13 17.924419 -63.075029 230 8542ft 293kts
21-Jun-16 17:14 17.878718 -63.148956 251 11129ft 311kts
21-Jun-16 17:15 17.912314 -63.238161 299 12280ft 380kts
21-Jun-16 17:16 17.941067 -63.297635 297 13949ft 405kts
21-Jun-16 17:17 17.997903 -63.405777 298 17022ft 436kts
21-Jun-16 17:18 18.056515 -63.520296 298 20075ft 449kts
21-Jun-16 17:19 18.115721 -63.636704 298 23103ft 449kts
21-Jun-16 17:20 18.141799 -63.762657 277 25963ft 440kts
21-Jun-16 17:21 18.159744 -63.891696 278 27645ft 450kts
21-Jun-16 17:22 18.177118 -64.023458 278 29022ft 458kts
21-Jun-16 17:23 18.193933 -64.155886 278 30148ft 467kts
21-Jun-16 17:24 18.211311 -64.292404 278 31145ft 473kts
21-Jun-16 17:25 18.228807 -64.430802 278 31964ft 479kts
21-Jun-16 17:26 18.246348 -64.570630 278 32536ft 483kts
21-Jun-16 17:27 18.263934 -64.711770 278 32928ft 487kts
21-Jun-16 17:28 18.281372 -64.853746 278 33201ft 489kts
21-Jun-16 17:29 18.298892 -64.996186 278 33547ft 488kts
21-Jun-16 17:30 18.316352 -65.137505 278 34114ft 483kts
21-Jun-16 17:31 18.333934 -65.278900 278 34155ft 489kts
21-Jun-16 17:32 18.351271 -65.421228 277 34167ft 491kts
21-Jun-16 17:33 18.474484 -66.442993 280 34101ft 494kts
21-Jun-16 17:34 18.548193 -66.561713 316 34120ft 497kts
21-Jun-16 17:34 25.068307 -77.528306 283 34150ft 487kts
21-Jun-16 17:35 25.042730 -77.670457 239 34162ft 485kts
21-Jun-16 17:36 25.008036 -77.812852 265 34151ft 487kts
21-Jun-16 17:37 25.001355 -77.962420 266 34140ft 487kts
21-Jun-16 17:38 24.994536 -78.111969 265 34144ft 488kts
21-Jun-16 17:39 24.987105 -78.261839 265 34136ft 489kts
21-Jun-16 17:40 24.979323 -78.411768 265 34134ft 489kts
21-Jun-16 17:41 24.971494 -78.561757 265 34128ft 489kts
21-Jun-16 17:42 24.705765 -81.122598 262 34078ft 491kts
21-Jun-16 17:43 24.743163 -81.263958 311 34120ft 498kts
21-Jun-16 17:44 24.864578 -81.328736 345 34118ft 494kts
21-Jun-16 17:45 24.973615 -81.415761 308 34123ft 495kts
21-Jun-16 17:46 27.904681 -85.285499 307 34107ft 497kts
21-Jun-16 17:47 27.944193 -85.441177 283 34158ft 530kts
21-Jun-16 17:48 29.193502 -90.192371 288 34157ft 514kts
21-Jun-16 17:49 31.844476 -106.420603 284 34099ft 495kts
21-Jun-16 17:50 31.876486 -106.577735 283 34105ft 492kts
21-Jun-16 17:51 32.953505 -112.796797 253 33957ft 489kts
21-Jun-16 17:52 32.919865 -112.955905 256 33859ft 497kts
21-Jun-16 17:54 32.896295 -113.117990 258 33855ft 498kts
21-Jun-16 17:55 32.873685 -113.280725 258 33850ft 497kts
21-Jun-16 17:56 32.850942 -113.443284 258 33845ft 497kts
21-Jun-16 17:57 32.828054 -113.605756 258 33837ft 497kts
21-Jun-16 17:58 32.805138 -113.768050 258 33830ft 497kts
21-Jun-16 17:59 32.782206 -113.930211 258 33823ft 496kts
21-Jun-16 18:00 32.777287 -114.094248 268 32409ft 497kts
21-Jun-16 18:01 32.776269 -114.255530 267 29399ft 474kts
21-Jun-16 18:02 32.773793 -114.409119 267 26391ft 454kts
21-Jun-16 18:03 32.771002 -114.555877 267 23845ft 436kts
21-Jun-16 18:04 32.768026 -114.699860 267 23810ft 434kts
21-Jun-16 18:05 32.764953 -114.843591 267 23813ft 434kts
21-Jun-16 18:06 32.761887 -114.986072 267 21795ft 419kts
21-Jun-16 18:07 32.758687 -115.113527 267 20959ft 356kts
21-Jun-16 18:08 32.755475 -115.246321 267 19943ft 412kts
21-Jun-16 18:09 32.752084 -115.380491 268 17993ft 400kts
21-Jun-16 18:10 32.748690 -115.512310 268 17742ft 398kts
21-Jun-16 18:11 32.752161 -115.643972 272 17743ft 398kts
21-Jun-16 18:12 32.755717 -115.775614 271 17742ft 398kts
21-Jun-16 18:13 32.758714 -115.906562 271 15698ft 390kts
21-Jun-16 18:14 32.761383 -116.029743 272 13648ft 351kts
21-Jun-16 18:15 32.763899 -116.140638 272 11830ft 320kts
21-Jun-16 18:16 32.766027 -116.242443 271 10072ft 294kts
21-Jun-16 18:17 32.767944 -116.335794 271 10008ft 283kts
21-Jun-16 18:18 32.769752 -116.429221 271 10024ft 283kts
21-Jun-16 18:19 32.766627 -116.522724 258 9635ft 284kts
21-Jun-16 18:20 32.746505 -116.611464 254 7838ft 271kts
21-Jun-16 18:21 32.725955 -116.696376 254 6111ft 260kts
21-Jun-16 18:22 32.706042 -116.779136 254 6015ft 260kts
21-Jun-16 18:23 32.686075 -116.862106 254 6000ft 261kts
21-Jun-16 18:24 32.672170 -116.946128 275 6011ft 261kts
21-Jun-16 18:25 32.689106 -117.024932 290 3697ft 213kts
21-Jun-16 18:26 32.707679 -117.077069 285 2401ft 128kts
21-Jun-16 18:27 32.716441 -117.118279 286 1262ft 124kts
21-Jun-16 18:28 32.725946 -117.158183 283 487ft 123kts
21-Jun-16 18:29 32.734860 -117.194995 285 31ft 73kts
21-Jun-16 18:29 32.736018 -117.202379 179 31ft 1kts
21-Jun-16 18:31 32.735938 -117.202373 177 31ft 0kts
21-Jun-16 18:31 32.735689 -117.202246 141 31ft 8kts
21-Jun-16 18:33 32.733650 -117.195227 204 31ft 5kts
21-Jun-16 18:33 32.733168 -117.195727 227 31ft 0kts
21-Jun-16 18:34 32.733167 -117.195728 227 31ft 0kts
21-Jun-16 18:35 32.733167 -117.195728 227 31ft 0kts
21-Jun-16 18:36 32.733167 -117.195728 227 31ft 0kts
21-Jun-16 18:37 32.733167 -117.195728 227 31ft 0kts
21-Jun-16 18:38 32.733167 -117.195728 227 31ft 0kts
21-Jun-16 18:39 32.733167 -117.195728 227 31ft 0kts
21-Jun-16 18:40 32.733167 -117.195728 227 31ft 0kts

Navigation Log

Ident Type
Flight plan parsing failed, navigation log unavailable